createdAt,value
2019-03-28T00:01:41.031Z,7.99
2019-03-28T00:06:50.271Z,8.08
2019-03-28T00:12:01.608Z,8.20
2019-03-28T00:17:09.437Z,8.26
2019-03-28T00:22:28.389Z,8.01
2019-03-28T00:27:36.869Z,8.13
2019-03-28T00:32:45.180Z,8.14
2019-03-28T00:37:53.330Z,8.01
2019-03-28T00:43:07.892Z,7.97
2019-03-28T00:48:12.873Z,7.89
2019-03-28T00:53:20.994Z,7.81
2019-03-28T00:58:31.605Z,7.84
2019-03-28T01:03:39.022Z,7.84
2019-03-28T01:08:46.920Z,7.75
2019-03-28T01:13:54.971Z,8.02
2019-03-28T01:19:06.640Z,7.89
2019-03-28T01:24:15.154Z,7.81
2019-03-28T01:29:23.998Z,7.86
2019-03-28T01:34:33.777Z,7.70
2019-03-28T01:39:41.473Z,7.34
2019-03-28T01:44:50.056Z,7.81
2019-03-28T01:50:00.654Z,7.80
2019-03-28T01:55:09.866Z,7.67
2019-03-28T02:00:18.668Z,7.70
2019-03-28T02:05:30.523Z,7.81
2019-03-28T02:10:39.616Z,7.57
2019-03-28T02:15:47.711Z,7.53
2019-03-28T02:20:57.589Z,7.85
2019-03-28T02:26:07.866Z,7.53
2019-03-28T02:31:16.702Z,7.75
2019-03-28T02:36:25.155Z,7.83
2019-03-28T02:41:42.163Z,7.47
2019-03-28T02:46:56.239Z,7.71
2019-03-28T02:52:02.866Z,7.52
2019-03-28T02:57:10.458Z,7.54
2019-03-28T03:02:18.508Z,7.61
2019-03-28T03:07:26.952Z,7.39
2019-03-28T03:12:34.615Z,7.42
2019-03-28T03:17:42.845Z,7.50
2019-03-28T03:22:51.173Z,7.56
2019-03-28T03:27:59.921Z,7.57
2019-03-28T03:33:10.993Z,7.66
2019-03-28T03:38:21.645Z,7.48
2019-03-28T03:43:29.516Z,7.50
2019-03-28T03:48:38.785Z,7.80
2019-03-28T03:53:46.786Z,7.54
2019-03-28T03:58:54.364Z,7.66
2019-03-28T04:04:05.379Z,7.60
2019-03-28T04:09:13.460Z,7.56
2019-03-28T04:14:21.070Z,7.50
2019-03-28T04:19:32.054Z,7.58
2019-03-28T04:24:42.991Z,7.34
2019-03-28T04:29:52.052Z,7.21
2019-03-28T04:34:59.933Z,7.27
2019-03-28T04:40:11.601Z,7.61
2019-03-28T04:45:19.236Z,7.25
2019-03-28T04:50:27.215Z,7.13
2019-03-28T04:55:35.528Z,7.20
2019-03-28T05:00:43.432Z,7.18
2019-03-28T05:05:51.487Z,7.23
2019-03-28T05:11:01.124Z,7.30
2019-03-28T05:16:10.193Z,7.45
2019-03-28T05:21:18.278Z,7.53
2019-03-28T05:26:26.085Z,7.37
2019-03-28T05:31:34.401Z,7.36
2019-03-28T05:36:43.047Z,7.61
2019-03-28T05:41:51.132Z,7.43
2019-03-28T05:46:58.917Z,7.50
2019-03-28T05:52:11.749Z,7.55
2019-03-28T05:57:18.944Z,7.57
2019-03-28T06:02:26.661Z,7.56
2019-03-28T06:07:34.630Z,7.46
2019-03-28T06:12:42.758Z,7.76
2019-03-28T06:17:50.682Z,7.63
2019-03-28T06:22:58.881Z,7.43
2019-03-28T06:28:11.274Z,7.69
2019-03-28T06:33:20.112Z,7.66
2019-03-28T06:38:28.487Z,7.87
2019-03-28T06:43:36.607Z,7.66
2019-03-28T06:48:44.349Z,7.75
2019-03-28T06:53:57.063Z,7.83
2019-03-28T06:59:06.103Z,8.05
2019-03-28T07:04:18.356Z,7.90
2019-03-28T07:09:28.558Z,7.88
2019-03-28T07:14:36.714Z,8.17
2019-03-28T07:19:44.882Z,8.10
2019-03-28T07:24:53.241Z,8.25
2019-03-28T07:30:01.497Z,8.26
2019-03-28T07:35:13.845Z,7.98
2019-03-28T07:40:22.835Z,7.88
2019-03-28T07:45:34.188Z,8.41
2019-03-28T07:50:42.521Z,8.23
2019-03-28T07:55:54.884Z,8.04
2019-03-28T08:01:05.960Z,8.20
2019-03-28T08:06:20.662Z,8.30
2019-03-28T08:11:35.567Z,8.28
2019-03-28T08:16:44.356Z,8.57
2019-03-28T08:21:54.066Z,8.42
2019-03-28T08:27:07.007Z,8.44
2019-03-28T08:32:17.770Z,8.35
2019-03-28T08:37:28.086Z,8.45
2019-03-28T08:42:36.159Z,8.30
2019-03-28T08:47:46.966Z,8.82
2019-03-28T08:52:55.070Z,8.44
2019-03-28T08:58:05.038Z,8.65
2019-03-28T09:03:12.912Z,8.80
2019-03-28T09:08:24.239Z,9.10
2019-03-28T09:13:32.370Z,8.82
2019-03-28T09:18:40.793Z,8.80
2019-03-28T09:23:48.866Z,8.99
2019-03-28T09:28:56.842Z,8.86
2019-03-28T09:34:04.665Z,8.91
2019-03-28T09:39:13.734Z,8.72
2019-03-28T09:44:22.225Z,9.10
2019-03-28T09:49:33.938Z,8.63
2019-03-28T09:54:49.247Z,8.87
2019-03-28T10:00:03.484Z,8.65
2019-03-28T10:05:15.543Z,9.18
2019-03-28T10:10:31.612Z,9.18
2019-03-28T10:15:43.889Z,8.87
2019-03-28T10:20:56.473Z,8.91
2019-03-28T10:26:09.112Z,8.97
2019-03-28T10:31:19.592Z,9.08
2019-03-28T10:36:27.935Z,9.46
2019-03-28T10:41:39.859Z,9.16
2019-03-28T10:46:49.174Z,9.21
2019-03-28T10:52:03.959Z,9.28
2019-03-28T10:57:15.275Z,9.45
2019-03-28T11:02:22.036Z,9.29
2019-03-28T11:07:31.391Z,9.36
2019-03-28T11:12:39.412Z,9.53
2019-03-28T11:17:47.808Z,9.46
2019-03-28T11:22:56.000Z,9.73
2019-03-28T11:34:03.703Z,9.96
2019-03-28T11:39:12.252Z,9.33
2019-03-28T11:44:23.357Z,9.29
2019-03-28T11:49:32.036Z,9.62
2019-03-28T12:11:59.226Z,9.55
2019-03-28T12:17:07.774Z,9.80
2019-03-28T12:28:50.866Z,9.13
2019-03-28T12:33:59.612Z,9.68
2019-03-28T12:39:15.455Z,9.43
2019-03-28T12:44:24.861Z,9.53
2019-03-28T12:49:33.186Z,9.82
2019-03-28T12:54:44.077Z,10.05
2019-03-28T12:59:53.447Z,9.84
2019-03-28T13:05:03.132Z,9.33
2019-03-28T13:10:12.083Z,8.76
2019-03-28T13:15:20.214Z,9.09
2019-03-28T13:20:30.745Z,9.62
2019-03-28T13:31:00.428Z,9.49
2019-03-28T13:36:09.285Z,9.51
2019-03-28T13:41:17.536Z,9.71
2019-03-28T13:46:26.827Z,9.58
2019-03-28T13:51:34.348Z,9.76
2019-03-28T13:56:41.837Z,9.69
2019-03-28T14:01:53.781Z,9.38
2019-03-28T14:07:03.732Z,9.21
2019-03-28T14:12:11.755Z,9.09
2019-03-28T14:17:21.839Z,9.27
2019-03-28T14:22:29.655Z,9.70
2019-03-28T14:27:37.780Z,9.37
2019-03-28T15:07:09.857Z,8.68
2019-03-28T15:12:17.913Z,8.89
2019-03-28T15:17:26.069Z,8.93
2019-03-28T15:22:34.178Z,8.95
2019-03-28T15:27:42.249Z,9.27
2019-03-28T15:32:57.332Z,9.57
2019-03-28T15:38:10.484Z,9.67
2019-03-28T15:43:24.429Z,9.71
2019-03-28T15:48:40.921Z,9.72
2019-03-28T15:53:50.949Z,9.14
2019-03-28T15:58:58.925Z,9.30
2019-03-28T16:04:09.577Z,9.70
2019-03-28T16:09:21.617Z,9.66
2019-03-28T16:14:32.969Z,9.52
2019-03-28T16:19:41.200Z,9.14
2019-03-28T16:24:48.820Z,8.81
2019-03-28T16:29:57.004Z,8.94
2019-03-28T16:35:06.983Z,8.78
2019-03-28T16:40:14.924Z,9.15
2019-03-28T16:45:24.225Z,9.21
2019-03-28T16:50:32.453Z,9.12
2019-03-28T16:55:43.481Z,9.11
2019-03-28T17:00:59.122Z,8.85
2019-03-28T17:06:08.438Z,9.13
2019-03-28T17:11:17.971Z,9.07
2019-03-28T17:16:26.797Z,9.30
2019-03-28T17:21:34.929Z,8.96
2019-03-28T17:26:42.661Z,9.06
2019-03-28T17:31:54.154Z,9.28
2019-03-28T17:37:03.865Z,9.16
2019-03-28T17:42:11.440Z,8.72
2019-03-28T17:47:19.299Z,9.26
2019-03-28T17:52:28.688Z,9.06
2019-03-28T17:57:40.064Z,8.84
2019-03-28T18:02:49.590Z,9.02
2019-03-28T18:52:51.639Z,9.44
2019-03-28T18:58:00.881Z,9.27
2019-03-28T19:03:12.356Z,8.89
2019-03-28T19:08:21.688Z,9.30
2019-03-28T19:13:31.247Z,9.46
2019-03-28T19:18:40.529Z,9.17
2019-03-28T19:23:49.105Z,9.31
2019-03-28T19:29:05.040Z,9.30
2019-03-28T19:34:15.454Z,9.43
2019-03-28T19:39:32.232Z,9.47
2019-03-28T19:44:45.270Z,9.61
2019-03-28T19:49:55.353Z,9.59
2019-03-28T19:55:14.346Z,9.68
2019-03-28T20:00:27.384Z,9.43
2019-03-28T20:05:47.357Z,9.59
2019-03-28T20:10:51.179Z,9.56
2019-03-28T20:15:59.817Z,9.10
2019-03-28T20:21:14.988Z,9.28
2019-03-28T20:26:27.911Z,9.51
2019-03-28T20:31:36.784Z,9.54
2019-03-28T20:36:48.367Z,9.71
2019-03-28T20:41:56.862Z,9.65
2019-03-28T20:47:08.002Z,9.61
2019-03-28T20:52:15.919Z,9.43
2019-03-28T20:57:29.391Z,9.39
2019-03-28T21:02:37.709Z,9.04
2019-03-28T21:07:45.508Z,9.09
2019-03-28T21:12:56.785Z,9.27
2019-03-28T21:18:08.087Z,9.41
2019-03-28T21:23:18.979Z,9.48
2019-03-28T21:28:27.037Z,9.51
2019-03-28T21:33:37.178Z,9.67
2019-03-28T21:38:44.867Z,9.74
2019-03-28T21:43:52.839Z,9.33
2019-03-28T21:49:00.907Z,9.45
2019-03-28T21:54:08.859Z,9.61
2019-03-28T21:59:21.040Z,9.86
2019-03-28T22:04:29.559Z,9.65
2019-03-28T22:09:39.689Z,9.65
2019-03-28T22:14:48.306Z,9.75
2019-03-28T22:19:57.310Z,9.82
2019-03-28T22:25:06.811Z,9.87
2019-03-28T22:30:15.678Z,9.68
2019-03-28T22:35:27.220Z,9.65
2019-03-28T22:40:35.216Z,9.71
2019-03-28T22:45:43.898Z,9.80
2019-03-28T22:50:52.076Z,9.73
2019-03-28T22:55:59.780Z,9.67
2019-03-28T23:01:10.257Z,9.73
2019-03-28T23:06:19.351Z,9.69
2019-03-28T23:11:29.965Z,9.70
2019-03-28T23:16:38.256Z,9.66
2019-03-28T23:21:45.945Z,9.71
2019-03-28T23:26:53.658Z,9.63
2019-03-28T23:32:04.155Z,9.78
2019-03-28T23:37:24.238Z,9.67
2019-03-28T23:42:22.840Z,9.67
2019-03-28T23:47:32.692Z,9.79
2019-03-28T23:52:40.360Z,9.42
2019-03-28T23:57:48.625Z,9.59
